.
WxDataArchive / Data Records for 2006-03-03
2006-03-02 March 2006 2006-03-04

Data Records for Friday, 03 March 2006

Time	Temp	Chill	HIndex	Humid	Dewpt	 Wind 	HiWind	WindDir	Rain 	Barom 
-----	----	-----	------	-----	-----	------	------	-------	-----	----- 
00:00	29.7	29.7	29.7	68	20.5	0	2	22	0.00	30.133 
00:05	29.7	29.7	29.7	69	20.8	0	1	22	0.00	30.133 
00:10	29.7	29.7	29.7	68	20.5	0	1	22	0.00	30.133 
00:15	29.7	29.7	29.7	69	20.8	0	1	22	0.00	30.136 
00:20	29.8	29.8	29.8	69	20.9	1	3	315	0.00	30.136 
00:25	29.8	29.8	29.8	69	20.9	0	2	338	0.00	30.136 
00:30	29.8	29.8	29.8	67	20.2	1	3	338	0.00	30.136 
00:35	29.8	29.8	29.8	67	20.2	1	3	22	0.00	30.136 
00:40	29.8	29.8	29.8	66	19.8	0	2	22	0.00	30.136 
00:45	29.8	29.8	29.8	66	19.8	0	3	292	0.00	30.138 
00:50	29.8	29.8	29.8	66	19.8	0	1	292	0.00	30.138 
00:55	29.8	29.8	29.8	66	19.8	0	2	292	0.00	30.138 
01:00	29.8	29.8	29.8	65	19.5	1	2	0	0.00	30.142 
01:05	30.0	30.0	30.0	64	19.3	1	3	338	0.00	30.142 
01:10	30.0	30.0	30.0	65	19.7	0	3	270	0.00	30.142 
01:15	30.0	30.0	30.0	65	19.7	0	1	270	0.00	30.146 
01:20	30.0	30.0	30.0	65	19.7	0	2	270	0.00	30.146 
01:25	30.0	30.0	30.0	65	19.7	0	2	270	0.00	30.146 
01:30	29.8	29.8	29.8	66	19.8	0	2	270	0.00	30.149 
01:35	29.7	29.7	29.7	65	19.4	0	2	270	0.00	30.149 
01:40	29.5	29.5	29.5	65	19.2	0	1	270	0.00	30.149 
01:45	29.3	29.3	29.3	65	19.0	0	2	270	0.00	30.154 
01:50	29.0	29.0	29.0	66	19.1	0	2	270	0.00	30.154 
01:55	28.7	28.7	28.7	67	19.2	0	1	270	0.00	30.154 
02:00	28.5	28.5	28.5	68	19.3	0	1	270	0.00	30.157 
02:05	28.4	28.4	28.4	69	19.5	0	1	270	0.00	30.157 
02:10	28.2	28.2	28.2	70	19.7	0	1	270	0.00	30.157 
02:15	27.9	27.9	27.9	70	19.4	0	2	270	0.00	30.161 
02:20	27.9	27.9	27.9	70	19.4	0	1	270	0.00	30.161 
02:25	27.6	27.6	27.6	70	19.1	0	1	270	0.00	30.161 
02:30	27.5	27.5	27.5	70	19.0	1	2	270	0.00	30.167 
02:35	27.5	27.5	27.5	70	19.0	1	2	270	0.00	30.167 
02:40	27.3	27.3	27.3	70	18.8	0	2	292	0.00	30.167 
02:45	27.2	27.2	27.2	70	18.7	0	2	315	0.00	30.173 
02:50	27.0	27.0	27.0	70	18.5	0	2	315	0.00	30.173 
02:55	26.9	26.9	26.9	70	18.4	0	1	315	0.00	30.173 
03:00	26.9	26.9	26.9	70	18.4	0	3	270	0.00	30.174 
03:05	26.9	26.9	26.9	71	18.8	0	1	270	0.00	30.174 
03:10	26.9	26.9	26.9	71	18.8	0	2	270	0.00	30.174 
03:15	26.9	26.9	26.9	71	18.8	0	1	270	0.00	30.174 
03:20	27.0	27.0	27.0	71	18.9	1	2	270	0.00	30.174 
03:25	27.2	27.2	27.2	71	19.1	1	2	315	0.00	30.174 
03:30	27.3	27.3	27.3	71	19.2	0	2	292	0.00	30.178 
03:35	27.3	27.3	27.3	72	19.5	0	2	315	0.00	30.178 
03:40	27.3	27.3	27.3	72	19.5	0	2	315	0.00	30.178 
03:45	27.3	27.3	27.3	72	19.5	1	3	315	0.00	30.183 
03:50	27.3	27.3	27.3	72	19.5	1	2	0	0.00	30.183 
03:55	27.3	27.3	27.3	71	19.2	1	2	315	0.00	30.183 
04:00	27.2	27.2	27.2	72	19.4	1	2	315	0.00	30.185 
04:05	27.2	27.2	27.2	72	19.4	1	3	292	0.00	30.185 
04:10	27.2	27.2	27.2	72	19.4	1	5	270	0.00	30.185 
04:15	27.0	27.0	27.0	72	19.2	1	4	315	0.00	30.186 
04:20	27.0	27.0	27.0	72	19.2	1	2	338	0.00	30.186 
04:25	26.9	26.9	26.9	72	19.1	0	2	315	0.00	30.186 
04:30	26.9	26.9	26.9	72	19.1	1	4	292	0.00	30.184 
04:35	26.7	26.7	26.7	71	18.6	1	5	315	0.00	30.184 
04:40	26.4	26.4	26.4	72	18.6	1	3	292	0.00	30.184 
04:45	26.3	26.3	26.3	72	18.5	0	1	292	0.00	30.182 
04:50	26.0	26.0	26.0	73	18.6	0	2	338	0.00	30.182 
04:55	25.8	25.8	25.8	73	18.4	0	2	338	0.00	30.182 
05:00	25.6	25.6	25.6	73	18.2	0	2	315	0.00	30.185 
05:05	25.4	25.4	25.4	73	18.0	0	1	315	0.00	30.185 
05:10	25.1	25.1	25.1	74	18.0	0	1	315	0.00	30.185 
05:15	24.8	24.8	24.8	75	18.0	0	0	---	0.00	30.192 
05:20	24.7	24.7	24.7	75	17.9	0	1	315	0.00	30.192 
05:25	24.4	24.4	24.4	75	17.6	0	1	315	0.00	30.192 
05:30	24.1	24.1	24.1	76	17.7	0	1	315	0.00	30.196 
05:35	23.9	23.9	23.9	76	17.5	0	1	315	0.00	30.196 
05:40	23.8	23.8	23.8	77	17.7	0	1	315	0.00	30.196 
05:45	23.6	23.6	23.6	77	17.5	0	2	315	0.00	30.204 
05:50	23.6	23.6	23.6	77	17.5	0	1	315	0.00	30.204 
05:55	23.5	23.5	23.5	77	17.4	0	1	315	0.00	30.204 
06:00	23.3	23.3	23.3	77	17.2	0	1	315	0.00	30.209 
06:05	23.2	23.2	23.2	77	17.1	0	1	315	0.00	30.209 
06:10	23.2	23.2	23.2	77	17.1	0	1	315	0.00	30.209 
06:15	23.2	23.2	23.2	77	17.1	0	2	315	0.00	30.212 
06:20	23.0	23.0	23.0	77	16.9	0	1	315	0.00	30.212 
06:25	23.0	23.0	23.0	77	16.9	0	2	315	0.00	30.212 
06:30	22.9	22.9	22.9	77	16.8	0	2	315	0.00	30.218 
06:35	22.7	22.7	22.7	77	16.6	0	1	315	0.00	30.218 
06:40	22.7	22.7	22.7	77	16.6	0	1	315	0.00	30.218 
06:45	22.5	22.5	22.5	77	16.4	0	1	315	0.00	30.227 
06:50	22.5	22.5	22.5	78	16.7	0	1	315	0.00	30.227 
06:55	22.5	22.5	22.5	78	16.7	0	1	315	0.00	30.227 
07:00	22.4	22.4	22.4	78	16.6	0	2	315	0.00	30.230 
07:05	22.4	22.4	22.4	78	16.6	0	2	292	0.00	30.230 
07:10	22.2	22.2	22.2	78	16.4	0	1	292	0.00	30.230 
07:15	22.1	22.1	22.1	78	16.3	0	1	292	0.00	30.234 
07:20	22.1	22.1	22.1	78	16.3	0	1	292	0.00	30.234 
07:25	21.9	21.9	21.9	78	16.1	0	1	292	0.00	30.234 
07:30	21.9	21.9	21.9	78	16.1	0	1	292	0.00	30.242 
07:35	22.1	22.1	22.1	79	16.6	0	1	292	0.00	30.242 
07:40	22.2	22.2	22.2	79	16.7	0	1	292	0.00	30.242 
07:45	22.7	22.7	22.7	78	16.9	0	1	292	0.00	30.249 
07:50	23.0	23.0	23.0	77	16.9	1	2	292	0.00	30.249 
07:55	23.5	23.5	23.5	77	17.4	1	2	270	0.00	30.249 
08:00	23.8	23.8	23.8	77	17.7	1	3	292	0.00	30.255 
08:05	24.2	24.2	24.2	76	17.7	1	2	270	0.00	30.255 
08:10	24.5	24.5	24.5	75	17.7	1	3	270	0.00	30.255 
08:15	24.7	24.7	24.7	74	17.6	1	2	315	0.00	30.260 
08:20	25.0	25.0	25.0	73	17.6	1	4	270	0.00	30.260 
08:25	25.3	25.3	25.3	72	17.6	1	4	270	0.00	30.260 
08:30	25.6	25.6	25.6	72	17.8	1	4	270	0.00	30.269 
08:35	25.8	25.8	25.8	71	17.7	1	4	270	0.00	30.269 
08:40	25.8	25.8	25.8	70	17.4	1	2	315	0.00	30.269 
08:45	25.7	25.7	25.7	70	17.3	1	3	315	0.00	30.272 
08:50	25.7	25.7	25.7	70	17.3	1	3	315	0.00	30.272 
08:55	26.1	26.1	26.1	69	17.3	1	3	22	0.00	30.272 
09:00	27.0	27.0	27.0	68	17.9	1	4	22	0.00	30.279 
09:05	27.6	27.6	27.6	66	17.8	1	4	338	0.00	30.279 
09:10	28.4	28.4	28.4	63	17.4	1	5	338	0.00	30.279 
09:15	28.7	28.7	28.7	64	18.1	1	3	338	0.00	30.278 
09:20	28.8	28.8	28.8	62	17.4	2	7	338	0.00	30.278 
09:25	28.7	28.7	28.7	62	17.4	1	7	292	0.00	30.278 
09:30	28.8	28.8	28.8	63	17.8	1	4	292	0.00	30.284 
09:35	28.7	28.7	28.7	61	17.0	2	5	338	0.00	30.284 
09:40	28.4	28.4	28.4	61	16.7	2	4	338	0.00	30.284 
09:45	28.2	28.2	28.2	62	16.9	1	4	0	0.00	30.287 
09:50	27.9	27.9	27.9	61	16.2	2	4	338	0.00	30.287 
09:55	27.8	27.8	27.8	61	16.1	2	7	292	0.00	30.287 
10:00	27.9	27.9	27.9	62	16.6	1	5	315	0.00	30.290 
10:05	28.1	28.1	28.1	59	15.6	1	4	338	0.00	30.290 
10:10	28.2	28.2	28.2	60	16.1	1	6	338	0.00	30.290 
10:15	28.4	28.4	28.4	59	15.9	1	3	292	0.00	30.292 
10:20	28.4	28.4	28.4	60	16.3	1	4	0	0.00	30.292 
10:25	28.5	28.5	28.5	61	16.8	1	5	45	0.00	30.292 
10:30	29.0	29.0	29.0	61	17.3	2	5	0	0.00	30.297 
10:35	29.0	29.0	29.0	61	17.3	1	4	315	0.00	30.297 
10:40	28.8	28.8	28.8	60	16.7	1	5	0	0.00	30.297 
10:45	29.0	29.0	29.0	60	16.9	1	4	0	0.00	30.299 
10:50	29.0	29.0	29.0	62	17.6	2	5	315	0.00	30.299 
10:55	29.0	29.0	29.0	61	17.3	2	5	0	0.00	30.299 
11:00	29.3	29.3	29.3	62	17.9	1	6	315	0.00	30.299 
11:05	29.4	29.4	29.4	60	17.3	2	3	0	0.00	30.299 
11:10	29.4	29.4	29.4	59	16.9	1	4	338	0.00	30.299 
11:15	29.4	29.4	29.4	61	17.6	1	4	338	0.00	30.304 
11:20	29.4	29.4	29.4	60	17.3	1	4	292	0.00	30.304 
11:25	29.4	29.4	29.4	59	16.9	2	4	338	0.00	30.304 
11:30	29.4	29.4	29.4	58	16.5	2	4	22	0.00	30.313 
11:35	29.4	29.4	29.4	59	16.9	2	10	0	0.00	30.313 
11:40	29.8	29.8	29.8	58	16.8	1	4	338	0.00	30.313 
11:45	29.7	29.7	29.7	58	16.8	2	4	338	0.00	30.308 
11:50	29.5	29.5	29.5	59	17.0	2	5	0	0.00	30.308 
11:55	29.8	29.8	29.8	60	17.6	1	5	45	0.00	30.308 
12:00	29.8	29.8	29.8	60	17.6	1	5	0	0.00	30.314 
12:05	29.7	29.7	29.7	58	16.8	2	6	338	0.00	30.314 
12:10	29.7	29.7	29.7	59	17.1	2	4	338	0.00	30.314 
12:15	30.0	30.0	30.0	60	17.8	1	3	315	0.00	30.317 
12:20	29.8	29.8	29.8	60	17.6	2	5	315	0.00	30.317 
12:25	30.1	30.1	30.1	60	17.9	2	4	0	0.00	30.317 
12:30	30.1	30.1	30.1	58	17.1	2	4	270	0.00	30.315 
12:35	30.4	30.4	30.4	57	17.0	2	5	270	0.00	30.315 
12:40	30.7	30.7	30.7	58	17.7	2	6	292	0.00	30.315 
12:45	31.0	31.0	31.0	56	17.2	2	4	292	0.00	30.318 
12:50	31.2	31.2	31.2	57	17.8	2	7	315	0.00	30.318 
12:55	30.6	30.6	30.6	55	16.4	3	7	338	0.00	30.318 
13:00	31.3	31.3	31.3	58	18.3	2	5	292	0.00	30.317 
13:05	31.0	31.0	31.0	55	16.8	3	7	292	0.00	30.317 
13:10	31.2	31.2	31.2	54	16.5	2	5	270	0.00	30.317 
13:15	31.8	31.8	31.8	56	17.9	1	5	22	0.00	30.311 
13:20	31.5	31.5	31.5	54	16.8	3	5	22	0.00	30.311 
13:25	31.8	31.8	31.8	55	17.5	2	6	270	0.00	30.311 
13:30	32.1	32.1	32.1	53	16.9	2	6	338	0.00	30.309 
13:35	32.1	32.1	32.1	54	17.4	3	7	270	0.00	30.309 
13:40	31.8	31.8	31.8	53	16.6	2	5	338	0.00	30.309 
13:45	31.8	31.8	31.8	53	16.6	2	5	22	0.00	30.305 
13:50	31.5	31.5	31.5	54	16.8	2	7	338	0.00	30.305 
13:55	31.3	31.3	31.3	55	17.0	2	6	270	0.00	30.305 
14:00	31.3	31.3	31.3	54	16.6	2	5	0	0.00	30.306 
14:05	31.5	31.5	31.5	56	17.6	2	5	338	0.00	30.306 
14:10	31.3	31.3	31.3	55	17.0	2	7	338	0.00	30.306 
14:15	31.3	31.3	31.3	54	16.6	1	5	22	0.00	30.306 
14:20	31.2	31.2	31.2	56	17.4	2	5	338	0.00	30.306 
14:25	31.8	31.8	31.8	56	17.9	2	4	292	0.00	30.306 
14:30	31.8	31.8	31.8	54	17.1	2	4	0	0.00	30.311 
14:35	31.9	31.9	31.9	54	17.2	1	4	0	0.00	30.311 
14:40	32.1	32.1	32.1	54	17.4	2	6	338	0.00	30.311 
14:45	32.1	32.1	32.1	54	17.4	2	5	338	0.00	30.309 
14:50	32.2	32.2	32.2	54	17.4	2	4	292	0.00	30.309 
14:55	32.5	32.5	32.5	55	18.2	2	4	0	0.00	30.309 
15:00	32.2	32.2	32.2	54	17.4	2	6	292	0.00	30.311 
15:05	32.4	32.4	32.4	55	18.1	2	4	270	0.00	30.311 
15:10	32.5	32.5	32.5	54	17.7	2	4	315	0.00	30.311 
15:15	32.2	32.2	32.2	54	17.4	1	3	338	0.00	30.317 
15:20	32.4	32.4	32.4	55	18.1	2	6	22	0.00	30.317 
15:25	32.5	32.5	32.5	54	17.7	1	4	315	0.00	30.317 
15:30	32.4	32.4	32.4	54	17.6	1	4	0	0.00	30.319 
15:35	32.1	32.1	32.1	54	17.4	2	5	338	0.00	30.319 
15:40	32.1	32.1	32.1	55	17.8	1	4	292	0.00	30.319 
15:45	31.9	31.9	31.9	55	17.6	2	5	338	0.00	30.322 
15:50	31.6	31.6	31.6	54	16.9	1	6	0	0.00	30.322 
15:55	31.6	31.6	31.6	54	16.9	1	4	22	0.00	30.322 
16:00	31.5	31.5	31.5	56	17.6	1	5	0	0.00	30.322 
16:05	31.8	31.8	31.8	56	17.9	1	4	338	0.00	30.322 
16:10	32.1	32.1	32.1	54	17.4	1	5	315	0.00	30.322 
16:15	32.5	32.5	32.5	53	17.3	1	5	0	0.00	30.322 
16:20	32.8	32.8	32.8	53	17.6	1	4	270	0.00	30.322 
16:25	33.2	33.2	33.2	53	17.9	1	2	315	0.00	30.322 
16:30	32.9	32.9	32.9	53	17.7	1	4	270	0.00	30.321 
16:35	32.5	32.5	32.5	52	16.9	1	4	0	0.00	30.321 
16:40	32.2	32.2	32.2	53	17.0	1	4	0	0.00	30.321 
16:45	32.2	32.2	32.2	53	17.0	1	4	0	0.00	30.320 
16:50	32.4	32.4	32.4	53	17.2	1	4	22	0.00	30.320 
16:55	32.9	32.9	32.9	51	16.8	2	5	270	0.00	30.320 
17:00	33.1	33.1	33.1	51	17.0	2	4	338	0.00	30.319 
17:05	33.1	33.1	33.1	52	17.4	1	5	338	0.00	30.319 
17:10	32.7	32.7	32.7	51	16.6	2	7	338	0.00	30.319 
17:15	32.1	32.1	32.1	52	16.5	2	5	270	0.00	30.323 
17:20	31.8	31.8	31.8	52	16.2	1	4	0	0.00	30.323 
17:25	31.8	31.8	31.8	53	16.6	1	5	270	0.00	30.323 
17:30	31.8	31.8	31.8	53	16.6	1	3	292	0.00	30.327 
17:35	31.6	31.6	31.6	54	16.9	2	4	338	0.00	30.327 
17:40	31.5	31.5	31.5	54	16.8	2	5	315	0.00	30.327 
17:45	31.5	31.5	31.5	54	16.8	1	4	270	0.00	30.335 
17:50	31.2	31.2	31.2	54	16.5	2	4	292	0.00	30.335 
17:55	31.0	31.0	31.0	54	16.3	1	4	292	0.00	30.335 
18:00	30.9	30.9	30.9	55	16.7	1	3	338	0.00	30.335 
18:05	30.9	30.9	30.9	55	16.7	1	4	292	0.00	30.335 
18:10	30.7	30.7	30.7	56	16.9	2	6	292	0.00	30.335 
18:15	30.7	30.7	30.7	55	16.5	1	3	338	0.00	30.340 
18:20	30.7	30.7	30.7	55	16.5	1	3	270	0.00	30.340 
18:25	30.6	30.6	30.6	55	16.4	1	3	0	0.00	30.340 
18:30	30.4	30.4	30.4	55	16.2	1	2	292	0.00	30.341 
18:35	30.4	30.4	30.4	55	16.2	1	3	270	0.00	30.341 
18:40	30.3	30.3	30.3	55	16.1	2	5	338	0.00	30.341 
18:45	30.3	30.3	30.3	56	16.5	1	3	292	0.00	30.344 
18:50	30.3	30.3	30.3	56	16.5	1	4	292	0.00	30.344 
18:55	30.1	30.1	30.1	57	16.7	0	2	0	0.00	30.344 
19:00	30.1	30.1	30.1	56	16.3	1	3	338	0.00	30.344 
19:05	30.1	30.1	30.1	56	16.3	2	5	315	0.00	30.344 
19:10	30.0	30.0	30.0	56	16.2	1	3	315	0.00	30.344 
19:15	30.0	30.0	30.0	57	16.6	1	4	315	0.00	30.344 
19:20	30.0	30.0	30.0	57	16.6	1	2	0	0.00	30.344 
19:25	30.0	30.0	30.0	56	16.2	1	4	315	0.00	30.344 
19:30	30.0	30.0	30.0	57	16.6	1	3	338	0.00	30.350 
19:35	30.0	30.0	30.0	56	16.2	1	3	270	0.00	30.350 
19:40	30.0	30.0	30.0	57	16.6	1	4	248	0.00	30.350 
19:45	30.0	30.0	30.0	57	16.6	1	4	270	0.00	30.352 
19:50	30.0	30.0	30.0	57	16.6	0	2	248	0.00	30.352 
19:55	29.8	29.8	29.8	57	16.4	1	2	0	0.00	30.352 
20:00	29.8	29.8	29.8	58	16.8	0	1	0	0.00	30.352 
20:05	29.7	29.7	29.7	58	16.8	0	3	0	0.00	30.352 
20:10	29.5	29.5	29.5	56	15.8	1	3	0	0.00	30.352 
20:15	29.4	29.4	29.4	56	15.7	0	1	0	0.00	30.348 
20:20	29.3	29.3	29.3	57	16.0	0	4	292	0.00	30.348 
20:25	29.3	29.3	29.3	57	16.0	1	3	292	0.00	30.348 
20:30	29.3	29.3	29.3	58	16.4	0	2	292	0.00	30.344 
20:35	29.3	29.3	29.3	58	16.4	0	2	292	0.00	30.344 
20:40	29.1	29.1	29.1	58	16.2	0	1	292	0.00	30.344 
20:45	29.0	29.0	29.0	58	16.1	0	2	338	0.00	30.345 
20:50	28.8	28.8	28.8	58	15.9	0	1	315	0.00	30.345 
20:55	28.8	28.8	28.8	58	15.9	0	2	315	0.00	30.345 
21:00	29.0	29.0	29.0	58	16.1	0	1	45	0.00	30.345 
21:05	29.0	29.0	29.0	58	16.1	0	3	45	0.00	30.345 
21:10	29.0	29.0	29.0	58	16.1	0	2	45	0.00	30.345 
21:15	29.0	29.0	29.0	59	16.5	0	1	270	0.00	30.350 
21:20	29.0	29.0	29.0	58	16.1	0	2	270	0.00	30.350 
21:25	29.0	29.0	29.0	59	16.5	0	1	270	0.00	30.350 
21:30	29.0	29.0	29.0	59	16.5	0	0	---	0.00	30.347 
21:35	28.8	28.8	28.8	60	16.7	0	1	270	0.00	30.347 
21:40	28.8	28.8	28.8	60	16.7	0	3	270	0.00	30.347 
21:45	29.0	29.0	29.0	59	16.5	0	2	0	0.00	30.351 
21:50	29.0	29.0	29.0	59	16.5	0	2	315	0.00	30.351 
21:55	29.0	29.0	29.0	59	16.5	0	2	315	0.00	30.351 
22:00	29.0	29.0	29.0	59	16.5	0	1	315	0.00	30.351 
22:05	29.0	29.0	29.0	60	16.9	0	3	0	0.00	30.351 
22:10	29.0	29.0	29.0	60	16.9	1	3	292	0.00	30.351 
22:15	29.0	29.0	29.0	59	16.5	1	4	292	0.00	30.350 
22:20	28.8	28.8	28.8	60	16.7	1	3	292	0.00	30.350 
22:25	28.8	28.8	28.8	60	16.7	1	3	338	0.00	30.350 
22:30	28.7	28.7	28.7	61	17.0	0	3	0	0.00	30.351 
22:35	28.7	28.7	28.7	60	16.6	0	2	292	0.00	30.351 
22:40	28.5	28.5	28.5	60	16.4	1	4	292	0.00	30.351 
22:45	28.5	28.5	28.5	60	16.4	1	2	315	0.00	30.353 
22:50	28.4	28.4	28.4	61	16.7	0	2	338	0.00	30.353 
22:55	28.4	28.4	28.4	60	16.3	0	2	338	0.00	30.353 
23:00	28.4	28.4	28.4	61	16.7	1	3	338	0.00	30.357 
23:05	28.2	28.2	28.2	61	16.5	0	3	0	0.00	30.357 
23:10	28.2	28.2	28.2	61	16.5	1	3	0	0.00	30.357 
23:15	28.2	28.2	28.2	62	16.9	0	2	315	0.00	30.356 
23:20	28.1	28.1	28.1	61	16.4	1	4	315	0.00	30.356 
23:25	28.1	28.1	28.1	61	16.4	0	2	68	0.00	30.356 
23:30	28.1	28.1	28.1	61	16.4	0	2	338	0.00	30.362 
23:35	28.1	28.1	28.1	61	16.4	1	4	270	0.00	30.362 
23:40	27.9	27.9	27.9	61	16.2	0	2	270	0.00	30.362 
23:45	27.9	27.9	27.9	61	16.2	0	2	338	0.00	30.365 
23:50	27.9	27.9	27.9	62	16.6	0	1	338	0.00	30.365 
23:55	27.9	27.9	27.9	62	16.6	0	2	338	0.00	30.365 

CoCoRaHS
IN-AL-39
A2 Web Hosting
Creative Commons License
GoDaddy
Look for:

loaded 2017-10-18 22:22:16 • last modified 2010-11-18 10:43:29
Privacy PolicyDisclaimer
• wx.awcolley.com is powered by PmWiki v.2002016 •
• all content (unless otherwise noted) © 2017 A W Colley